Detalii statie AGROKAISER STANESTI [0000198D]

Toti senzorii

Date Temperatura solului [C]Precipitatii [mm]Voltaj baterie [mV]Leaf Wetness [Min]HC Air temperature [C]HC Relative humidity [%]Punctul de roua [C]
medieminmaxsumaultimatimpmedieminmaxmediemediemin
2017-08-14 20:00:00 0 6826 23.9 23.61 24.29 82.29 20.5 20.1
2017-08-14 21:00:00 0 6816 23.18 22 23.75 84.05 20.1 19.4
2017-08-14 22:00:00 0 6806 21.14 20.24 21.83 94.58 20.1 19.9
2017-08-14 23:00:00 0 6806 20.28 19.87 20.76 99.64 20.1 19.8
2017-08-15 00:00:00 0 6796 19.58 19.33 19.91 100 19.5 19.3
2017-08-15 01:00:00 0 6776 19.29 19.09 19.41 100 19.2 19
2017-08-15 02:00:00 0 6796 18.72 18.44 19.1 100 18.6 18.4
2017-08-15 03:00:00 0 6786 18.33 18.12 18.47 100 18.2 18.1
2017-08-15 04:00:00 0 6786 17.87 17.64 18.06 100 17.8 17.6
2017-08-15 05:00:00 0 6776 17.19 16.89 17.55 100 17.1 16.8
2017-08-15 06:00:00 0 6786 17.29 16.96 17.85 100 17.2 16.9
2017-08-15 07:00:00 0 7274 18.52 17.88 19.47 100 18.4 17.8
2017-08-15 08:00:00 0 7274 20.88 19.69 22.22 97 20.2 19.6
2017-08-15 09:00:00 0 7264 23.87 22.6 25.06 84.05 20.8 20.6
2017-08-15 10:00:00 0 7264 25.69 24.63 26.89 77.5 21.3 20.8
2017-08-15 11:00:00 0 7254 28.75 27.5 30.39 60.09 20 19.1
2017-08-15 12:00:00 0 7254 28.44 28.1 29.17 56.69 18.8 18.3
2017-08-15 13:00:00 0 7246 29.49 28.6 30.33 53.34 18.8 18.4
2017-08-15 14:00:00 0 7128 30.12 29.6 30.58 52.11 19 18.7
2017-08-15 15:00:00 0 7098 30.7 30.23 31.28 50.79 19.1 18.7
2017-08-15 16:00:00 0 7236 30.79 30.46 31.09 50.04 18.9 18.2
2017-08-15 17:00:00 0 7236 30.61 29.91 31.32 51.49 19.3 19
2017-08-15 18:00:00 0 6962 29.26 28.68 30.11 54.17 18.8 18.4
2017-08-15 19:00:00 0 6854 27.46 26.48 28.51 57.71 18.2 17.5
2017-08-15 20:00:00 0 6844 25.51 24.5 26.3 61.82 17.4 17.3
2017-08-15 21:00:00 0 6826 23.9 23.12 24.23 67.76 17.3 17.3
2017-08-15 22:00:00 0 6826 22.93 22.62 23.33 70.07 17 16.9
2017-08-15 23:00:00 0 6806 21.69 21.33 22.59 75.27 16.9 16.9
2017-08-16 00:00:00 0 6816 20.89 20.62 21.23 78.16 16.8 16.3
2017-08-16 01:00:00 0 6806 20.28 20.04 20.8 79.7 16.5 16.2
2017-08-16 02:00:00 0 6806 19.77 19.07 20.33 81.02 16.2 16
2017-08-16 03:00:00 0 6796 18.92 18.8 19.13 84.42 16.1 16
2017-08-16 04:00:00 0 6796 19 18.86 19.14 83.8 16 15.9
2017-08-16 05:00:00 0 6786 19.09 18.82 19.33 85.08 16.3 16.2
2017-08-16 06:00:00 0 6806 19.34 19.04 19.73 86.01 16.8 16.6
2017-08-16 07:00:00 0 7226 20.48 19.79 21.97 84.57 17.6 17.2
2017-08-16 08:00:00 0 7264 23 22.31 24.36 76.4 18.4 18.3
2017-08-16 09:00:00 0 7264 26.85 24.36 28.1 64.31 19.3 18.9
2017-08-16 10:00:00 0 7264 28.63 28.13 29.16 60.24 20 19.7
2017-08-16 11:00:00 0 7254 29.78 29.09 30.6 57.38 20.2 19.9
2017-08-16 12:00:00 0 7246 30.89 30.09 32 53.79 20.2 19.7
2017-08-16 13:00:00 0 7236 31.56 30.26 32.49 49.92 19.6 19.1
2017-08-16 14:00:00 0 7236 32.19 31.34 32.59 44.7 18.4 17.8
2017-08-16 15:00:00 0 7118 32.71 31.97 33.23 41.89 17.8 17
2017-08-16 16:00:00 0 7080 32.29 31.36 32.95 41.24 17.2 16.1
2017-08-16 17:00:00 0 7098 31.33 31.06 31.79 42.14 16.7 16.1
2017-08-16 18:00:00 0 7000 30.71 30.2 31.1 47.76 18.1 17.3